Time;durP1;ratioP1;P1;durP2;ratioP2;P2;SDS_P1;SDS_P2;PMS_P1;PMS_P2;Temp;Humidity;BMP_temperature;BMP_pressure;BME280_temperature;BME280_humidity;BME280_pressure;Samples;Min_cycle;Max_cycle;Signal;HPM_P1;HPM_P2
2022/10/02 08:15:14;;;;;;;3.53;1.70;;;13.30;99.90;;;;;;5137819;27;20287;-85
2022/10/02 08:17:47;;;;;;;3.50;1.67;;;13.40;99.90;;;;;;5136040;27;20210;-85
2022/10/02 08:20:12;;;;;;;1.87;1.10;;;13.50;99.90;;;;;;5133757;28;20177;-86
2022/10/02 08:22:45;;;;;;;1.97;1.20;;;13.60;99.90;;;;;;5134901;27;20575;-86
2022/10/02 08:25:21;;;;;;;1.23;1.10;;;13.60;99.90;;;;;;5136300;27;20191;-86
2022/10/02 08:27:56;;;;;;;1.77;1.20;;;13.70;99.90;;;;;;5135075;28;20175;-85
2022/10/02 08:30:22;;;;;;;2.43;1.30;;;13.70;99.90;;;;;;5136594;27;20170;-85
2022/10/02 08:32:47;;;;;;;8.03;1.40;;;13.70;99.90;;;;;;5134837;28;20320;-84
2022/10/02 08:35:16;;;;;;;1.63;1.07;;;13.70;99.90;;;;;;5136457;27;20190;-84
2022/10/02 08:45:38;;;;;;;2.20;0.97;;;13.80;99.90;;;;;;5135669;27;20310;-84
2022/10/02 08:48:23;;;;;;;2.00;0.90;;;14.10;99.90;;;;;;5133774;28;20186;-83
2022/10/02 08:51:21;;;;;;;1.23;0.70;;;14.40;99.90;;;;;;5134861;27;20176;-85
2022/10/02 08:54:01;;;;;;;1.43;0.80;;;14.40;99.90;;;;;;5132890;27;20596;-86
2022/10/02 08:56:53;;;;;;;1.43;0.90;;;14.50;99.90;;;;;;5133503;28;20668;-84
2022/10/02 08:59:45;;;;;;;1.57;1.10;;;14.60;99.90;;;;;;5134650;27;20211;-84
2022/10/02 09:02:48;;;;;;;1.33;1.00;;;14.80;99.90;;;;;;5102363;28;20190;-84
2022/10/02 09:05:45;;;;;;;9.43;3.90;;;15.00;99.90;;;;;;5135081;28;20262;-84
2022/10/02 09:08:38;;;;;;;2.13;1.40;;;15.10;99.90;;;;;;5133153;28;20213;-84
2022/10/02 09:11:36;;;;;;;2.10;1.20;;;15.30;99.90;;;;;;5133332;28;20174;-85
2022/10/02 09:14:36;;;;;;;1.00;0.70;;;15.40;99.90;;;;;;5134741;27;20163;-84
2022/10/02 09:17:23;;;;;;;2.53;0.90;;;15.50;99.90;;;;;;5133254;28;20213;-84
2022/10/02 09:20:18;;;;;;;2.63;1.30;;;15.50;99.90;;;;;;5134586;27;20167;-85
2022/10/02 09:23:05;;;;;;;2.27;1.30;;;15.50;99.90;;;;;;5132856;28;20171;-85
2022/10/02 09:25:36;;;;;;;1.00;0.90;;;15.50;99.90;;;;;;5134069;27;20198;-85
2022/10/02 09:28:22;;;;;;;2.63;0.80;;;15.70;99.90;;;;;;5134216;27;20244;-85
2022/10/02 09:30:51;;;;;;;1.83;0.90;;;16.00;99.90;;;;;;5134997;27;20645;-85
2022/10/02 09:33:31;;;;;;;3.63;0.83;;;15.80;99.90;;;;;;5133400;28;20189;-83
2022/10/02 09:36:29;;;;;;;2.37;0.90;;;15.70;99.90;;;;;;5134989;27;20660;-83
2022/10/02 09:39:33;;;;;;;1.20;1.00;;;15.60;99.90;;;;;;5133001;28;20183;-82
2022/10/02 09:42:10;;;;;;;0.90;0.80;;;16.10;99.90;;;;;;5132813;28;20178;-87
2022/10/02 09:45:04;;;;;;;1.20;0.90;;;16.10;99.90;;;;;;5133190;28;20214;-83
2022/10/02 09:47:48;;;;;;;1.63;1.30;;;15.80;99.90;;;;;;5133403;28;20203;-84
2022/10/02 09:50:27;;;;;;;1.27;1.17;;;16.10;99.90;;;;;;5135132;27;20662;-84
2022/10/02 09:53:14;;;;;;;1.83;1.30;;;16.40;99.90;;;;;;5133362;28;20238;-83
2022/10/02 09:56:07;;;;;;;2.70;2.20;;;16.30;99.90;;;;;;5127449;28;20195;-85
2022/10/02 09:59:19;;;;;;;3.03;1.03;;;16.20;99.90;;;;;;5119653;28;20176;-86
2022/10/02 10:02:03;;;;;;;0.97;0.80;;;16.10;99.90;;;;;;5138362;28;20163;-85
2022/10/02 10:04:55;;;;;;;0.73;0.70;;;16.20;99.90;;;;;;5120930;28;20202;-84
2022/10/02 10:07:29;;;;;;;0.60;0.60;;;16.30;99.90;;;;;;5121101;28;20533;-83
2022/10/02 10:10:23;;;;;;;0.80;0.80;;;16.70;99.90;;;;;;5120205;28;20229;-85
2022/10/02 10:13:06;;;;;;;1.00;0.80;;;17.60;99.90;;;;;;5117962;28;20172;-83
2022/10/02 10:16:00;;;;;;;1.07;0.70;;;18.20;99.90;;;;;;5118662;28;20217;-83
2022/10/02 10:18:52;;;;;;;1.10;1.10;;;18.80;99.90;;;;;;5119193;28;20218;-83
2022/10/02 10:21:36;;;;;;;0.70;0.70;;;19.60;99.90;;;;;;5120143;28;20225;-85
2022/10/02 10:24:30;;;;;;;0.87;0.87;;;19.80;99.90;;;;;;5120013;28;20242;-86
2022/10/02 10:27:33;;;;;;;0.70;0.60;;;19.80;99.90;;;;;;5121093;28;20198;-84
2022/10/02 10:30:12;;;;;;;0.60;0.53;;;20.10;99.90;;;;;;5119298;28;20178;-82
2022/10/02 10:32:59;;;;;;;0.60;0.60;;;20.30;99.90;;;;;;5117667;28;20175;-82
2022/10/02 10:35:40;;;;;;;0.70;0.50;;;20.50;99.90;;;;;;5117848;28;20198;-84
2022/10/02 10:38:33;;;;;;;0.87;0.60;;;20.80;99.90;;;;;;5118694;28;20175;-82
2022/10/02 10:41:27;;;;;;;2.77;0.40;;;20.50;99.90;;;;;;5120461;28;20187;-84
2022/10/02 10:44:36;;;;;;;0.70;0.70;;;20.30;99.90;;;;;;5120962;28;20632;-84
2022/10/02 10:47:21;;;;;;;1.17;0.43;;;19.60;99.90;;;;;;5119912;28;20167;-85
2022/10/02 10:50:05;;;;;;;1.23;0.67;;;19.10;99.90;;;;;;5119998;28;20235;-84
2022/10/02 10:52:40;;;;;;;0.73;0.70;;;18.40;99.90;;;;;;5118717;28;20172;-83
2022/10/02 10:55:11;;;;;;;0.60;0.57;;;18.10;99.90;;;;;;5119405;28;20251;-86
2022/10/02 10:57:58;;;;;;;0.43;0.40;;;18.00;99.90;;;;;;5118601;28;20262;-85
2022/10/02 11:00:54;;;;;;;0.70;0.70;;;18.00;99.90;;;;;;5120934;28;20176;-86
2022/10/02 11:03:59;;;;;;;0.57;0.57;;;18.00;99.90;;;;;;5119452;28;20188;-87
2022/10/02 11:06:40;;;;;;;0.53;0.53;;;18.00;99.90;;;;;;5118541;28;20293;-84
2022/10/02 11:09:46;;;;;;;0.70;0.70;;;17.90;99.90;;;;;;5121777;28;20172;-86
2022/10/02 11:12:37;;;;;;;2.00;0.70;;;17.80;99.90;;;;;;5118306;28;20161;-85
2022/10/02 11:15:39;;;;;;;0.70;0.60;;;17.60;99.90;;;;;;5119330;28;20247;-85
2022/10/02 11:18:23;;;;;;;1.00;0.90;;;17.20;99.90;;;;;;5119551;28;20241;-86
2022/10/02 11:20:57;;;;;;;1.10;0.80;;;16.90;99.90;;;;;;5117950;28;20559;-84
2022/10/02 11:23:54;;;;;;;0.80;0.70;;;16.60;99.90;;;;;;5119020;28;20193;-84
2022/10/02 11:26:31;;;;;;;0.60;0.60;;;16.60;99.90;;;;;;5119542;28;20275;-86
2022/10/02 11:29:03;;;;;;;1.47;0.80;;;16.70;99.90;;;;;;5120140;28;20709;-85
2022/10/02 11:31:48;;;;;;;0.60;0.60;;;17.20;99.90;;;;;;5122134;28;20171;-85
2022/10/02 11:34:34;;;;;;;0.70;0.70;;;17.70;99.90;;;;;;5120037;28;20172;-85
2022/10/02 11:37:30;;;;;;;0.63;0.63;;;17.60;99.90;;;;;;5121254;28;20177;-86
2022/10/02 11:40:12;;;;;;;1.83;0.70;;;17.10;99.90;;;;;;5132605;28;20181;-81
2022/10/02 11:43:16;;;;;;;0.60;0.60;;;16.80;99.90;;;;;;5136651;28;20171;-82
2022/10/02 11:45:42;;;;;;;0.80;0.70;;;16.50;99.90;;;;;;5134350;28;20198;-83
2022/10/02 11:48:13;;;;;;;0.57;0.57;;;16.30;99.90;;;;;;5123313;28;20194;-86
2022/10/02 11:50:42;;;;;;;0.80;0.80;;;16.00;99.90;;;;;;5118657;28;20180;-84
2022/10/02 11:53:30;;;;;;;0.77;0.70;;;15.90;99.90;;;;;;5117316;28;20187;-84
2022/10/02 11:56:23;;;;;;;0.70;0.70;;;15.80;99.90;;;;;;5117585;28;20191;-83
2022/10/02 11:59:00;;;;;;;2.37;0.97;;;15.80;99.90;;;;;;5116068;28;20175;-84
2022/10/02 12:01:44;;;;;;;0.70;0.70;;;15.80;99.90;;;;;;5117196;28;20167;-83
2022/10/02 12:04:31;;;;;;;0.70;0.70;;;15.80;99.90;;;;;;5115538;28;20203;-84
2022/10/02 12:07:05;;;;;;;0.63;0.63;;;15.80;99.90;;;;;;5116654;28;20254;-82
2022/10/02 12:09:57;;;;;;;0.70;0.70;;;15.70;99.90;;;;;;5116802;28;20167;-83
2022/10/02 12:13:01;;;;;;;0.60;0.60;;;15.60;99.90;;;;;;5115645;28;20163;-85
2022/10/02 12:15:33;;;;;;;0.67;0.60;;;15.60;99.90;;;;;;5118596;28;20199;-84
2022/10/02 12:18:04;;;;;;;0.90;0.80;;;15.50;99.90;;;;;;5119470;28;20183;-84
2022/10/02 12:29:17;;;;;;;0.90;0.80;;;15.20;99.90;;;;;;5123662;28;20205;-82
2022/10/02 12:31:54;;;;;;;0.70;0.70;;;15.10;99.90;;;;;;5119517;28;20219;-83
2022/10/02 12:34:47;;;;;;;0.70;0.70;;;15.10;99.90;;;;;;5117753;28;20179;-85
2022/10/02 12:37:31;;;;;;;7.33;6.60;;;15.10;99.90;;;;;;5117121;28;20168;-84
2022/10/02 12:40:24;;;;;;;2.17;1.97;;;15.00;99.90;;;;;;5118467;28;20200;-84
2022/10/02 12:43:06;;;;;;;5.40;4.90;;;15.10;99.90;;;;;;5117211;28;20186;-81
2022/10/02 12:46:06;;;;;;;10.90;5.93;;;15.20;99.90;;;;;;5115793;28;20199;-84
2022/10/02 12:48:35;;;;;;;3.13;2.73;;;15.30;99.90;;;;;;5090687;28;20206;-83
2022/10/02 12:51:37;;;;;;;2.70;2.50;;;15.40;99.90;;;;;;5115604;28;20177;-83
2022/10/02 12:54:47;;;;;;;1.60;1.40;;;15.40;99.90;;;;;;5116302;28;20534;-84
2022/10/02 12:57:51;;;;;;;8.40;7.40;;;15.50;99.90;;;;;;5116185;28;20172;-83
2022/10/02 13:00:19;;;;;;;7.00;5.47;;;15.50;99.90;;;;;;5116687;28;20549;-84
2022/10/02 13:03:07;;;;;;;2.43;2.23;;;15.50;99.90;;;;;;5116872;28;20172;-85
2022/10/02 13:06:13;;;;;;;1.10;0.90;;;15.70;99.90;;;;;;5115857;28;20200;-85
2022/10/02 13:08:50;;;;;;;1.07;0.90;;;15.80;99.90;;;;;;5115513;28;20175;-82
2022/10/02 13:11:18;;;;;;;4.03;3.50;;;16.10;99.90;;;;;;5115345;28;20160;-84
2022/10/02 13:14:11;;;;;;;3.10;2.80;;;17.10;99.90;;;;;;5115326;28;20172;-83
2022/10/02 13:17:15;;;;;;;6.63;5.37;;;17.40;99.90;;;;;;5115392;28;20690;-84
2022/10/02 13:20:26;;;;;;;9.03;7.23;;;17.30;99.90;;;;;;5110565;28;20185;-82
2022/10/02 13:23:00;;;;;;;3.80;3.40;;;17.00;99.90;;;;;;5073874;28;20248;-82
2022/10/02 13:25:55;;;;;;;10.17;8.53;;;16.70;99.90;;;;;;5057590;28;20212;-84
2022/10/02 13:28:48;;;;;;;5.90;4.30;;;16.50;99.90;;;;;;5106557;28;20643;-82
2022/10/02 13:32:01;;;;;;;2.47;2.17;;;16.30;99.90;;;;;;5118981;28;20178;-84
2022/10/02 13:34:47;;;;;;;2.40;2.20;;;16.20;99.90;;;;;;5082617;28;20189;-84
2022/10/02 13:37:16;;;;;;;9.10;8.10;;;16.10;99.90;;;;;;5118981;28;20695;-86
2022/10/02 13:39:41;;;;;;;4.27;2.40;;;16.00;99.90;;;;;;5118838;28;20651;-84
2022/10/02 13:42:51;;;;;;;6.77;6.07;;;15.90;99.90;;;;;;5120329;28;20172;-82
2022/10/02 13:45:33;;;;;;;10.53;8.93;;;15.90;99.90;;;;;;5102851;28;20372;-85
2022/10/02 13:48:14;;;;;;;7.20;5.37;;;15.90;99.90;;;;;;5119841;28;20191;-83
2022/10/02 13:51:13;;;;;;;2.30;2.10;;;15.80;99.90;;;;;;5119508;28;20160;-84
2022/10/02 13:54:18;;;;;;;2.07;1.93;;;15.90;99.90;;;;;;5118712;28;20172;-83
2022/10/02 13:56:53;;;;;;;5.57;5.07;;;16.00;99.90;;;;;;5098233;27;20560;-85
2022/10/02 13:59:37;;;;;;;3.57;2.63;;;16.10;99.90;;;;;;5118555;28;20529;-83
2022/10/02 14:02:32;;;;;;;9.17;7.33;;;16.40;99.90;;;;;;5119681;28;20183;-85
2022/10/02 14:05:03;;;;;;;3.00;2.63;;;17.10;99.90;;;;;;5119817;28;20684;-88
2022/10/02 14:08:12;;;;;;;6.57;4.23;;;17.50;99.90;;;;;;5121262;28;20165;-84
2022/10/02 14:11:13;;;;;;;3.10;2.80;;;18.80;99.90;;;;;;5113858;28;20223;-86
2022/10/02 14:14:07;;;;;;;1.37;0.90;;;20.20;99.90;;;;;;5126746;28;20161;-84
2022/10/02 14:16:55;;;;;;;0.70;0.70;;;21.20;99.90;;;;;;5111679;28;20729;-84
2022/10/02 14:19:59;;;;;;;0.70;0.70;;;20.90;99.90;;;;;;5099783;28;20209;-84
2022/10/02 14:22:28;;;;;;;4.10;0.90;;;19.80;99.90;;;;;;5099154;28;20237;-83
2022/10/02 14:25:19;;;;;;;1.30;1.20;;;18.80;99.90;;;;;;5100633;28;20708;-83
2022/10/02 14:28:16;;;;;;;1.07;0.90;;;18.30;99.90;;;;;;5099542;28;20160;-86
2022/10/02 14:31:01;;;;;;;1.03;0.87;;;18.20;99.90;;;;;;5099231;28;20177;-84
2022/10/02 14:33:33;;;;;;;1.17;1.07;;;18.20;99.90;;;;;;5099871;28;20545;-84
2022/10/02 14:36:09;;;;;;;0.80;0.80;;;18.00;99.90;;;;;;5099410;28;20194;-84
2022/10/02 14:39:19;;;;;;;0.80;0.70;;;17.80;99.90;;;;;;5098935;28;20181;-85
2022/10/02 14:41:54;;;;;;;0.70;0.70;;;17.60;99.90;;;;;;5099328;28;20179;-85
2022/10/02 14:44:38;;;;;;;0.77;0.77;;;17.40;99.90;;;;;;5097710;28;20240;-85
2022/10/02 14:47:22;;;;;;;1.13;0.80;;;17.20;99.90;;;;;;5099383;28;20488;-82
2022/10/02 14:50:00;;;;;;;1.10;1.00;;;17.00;99.90;;;;;;5098493;28;20191;-85
2022/10/02 14:52:34;;;;;;;1.00;0.90;;;16.80;99.90;;;;;;5098032;28;20593;-85
2022/10/02 14:55:34;;;;;;;0.77;0.70;;;16.60;99.90;;;;;;5099221;28;20191;-84
2022/10/02 14:58:18;;;;;;;0.80;0.77;;;16.50;99.90;;;;;;5097705;28;20259;-83
2022/10/02 15:01:28;;;;;;;1.00;0.90;;;16.40;99.90;;;;;;5097582;28;20169;-84
2022/10/02 15:04:09;;;;;;;0.93;0.87;;;16.30;99.90;;;;;;5098089;28;20214;-85
2022/10/02 15:07:00;;;;;;;0.90;0.90;;;16.20;99.90;;;;;;5117396;28;20556;-84
2022/10/02 15:09:37;;;;;;;1.23;1.00;;;16.10;99.90;;;;;;5118007;28;20250;-84
2022/10/02 15:12:04;;;;;;;1.30;1.10;;;16.10;99.90;;;;;;5118024;28;20273;-87
2022/10/02 15:14:40;;;;;;;2.17;0.87;;;15.80;99.90;;;;;;5116978;28;20194;-85
2022/10/02 15:20:11;;;;;;;1.37;1.20;;;15.60;99.90;;;;;;5098051;28;20183;-83
2022/10/02 15:22:53;;;;;;;16.30;11.80;;;15.50;99.90;;;;;;5097947;28;20152;-83
2022/10/02 15:25:41;;;;;;;67.67;41.03;;;15.40;99.90;;;;;;5102828;28;20215;-86
2022/10/02 15:28:28;;;;;;;13.73;7.90;;;15.30;99.90;;;;;;5096754;28;20156;-86
2022/10/02 15:31:39;;;;;;;5.07;3.63;;;15.30;99.90;;;;;;5110084;28;20178;-84
2022/10/02 15:34:19;;;;;;;4.90;3.00;;;15.20;99.90;;;;;;5116745;28;20928;-86
2022/10/02 15:37:03;;;;;;;4.50;4.10;;;15.10;99.90;;;;;;5116210;28;20194;-86
2022/10/02 15:39:37;;;;;;;2.97;2.73;;;15.10;99.90;;;;;;5096234;28;20272;-90
2022/10/02 15:42:08;;;;;;;3.97;3.37;;;15.00;99.90;;;;;;5096853;28;20178;-80
2022/10/02 15:45:14;;;;;;;2.80;2.60;;;15.00;99.90;;;;;;5096093;28;20200;-87
2022/10/02 15:47:55;;;;;;;4.97;2.53;;;15.00;99.90;;;;;;5085623;28;20180;-84
2022/10/02 15:50:41;;;;;;;2.40;2.20;;;14.90;99.90;;;;;;5117434;28;20160;-85
2022/10/02 15:53:31;;;;;;;1.93;1.37;;;14.80;99.90;;;;;;5115341;28;20202;-83
2022/10/02 15:56:36;;;;;;;6.47;3.60;;;14.80;99.90;;;;;;5117366;28;20187;-82
2022/10/02 15:59:19;;;;;;;4.27;2.33;;;14.70;99.90;;;;;;5116307;28;20259;-85
2022/10/02 16:02:23;;;;;;;1.37;1.27;;;14.70;99.90;;;;;;5116148;28;20173;-84
2022/10/02 16:05:15;;;;;;;2.20;1.70;;;14.60;99.90;;;;;;5115549;28;20214;-84
2022/10/02 16:08:08;;;;;;;6.40;1.53;;;14.50;99.90;;;;;;5115593;28;20187;-86
2022/10/02 16:10:52;;;;;;;2.13;1.60;;;14.20;99.90;;;;;;5115789;28;20641;-86
2022/10/02 16:13:27;;;;;;;3.37;1.60;;;14.20;99.90;;;;;;5116104;28;20206;-85
2022/10/02 16:16:33;;;;;;;1.63;1.53;;;14.10;99.90;;;;;;5115604;28;20187;-86
2022/10/02 16:19:21;;;;;;;2.40;2.20;;;14.00;99.90;;;;;;5114799;28;20171;-86
2022/10/02 16:22:03;;;;;;;0.97;0.80;;;13.90;99.90;;;;;;5118387;28;20674;-86
2022/10/02 16:24:50;;;;;;;1.80;0.97;;;13.50;99.90;;;;;;5116035;28;20202;-84
2022/10/02 16:27:48;;;;;;;1.93;1.47;;;13.40;99.90;;;;;;5117193;28;20221;-85
2022/10/02 16:30:22;;;;;;;1.67;0.80;;;13.20;99.90;;;;;;5097661;28;20179;-84
2022/10/02 16:32:54;;;;;;;3.10;1.67;;;13.00;99.90;;;;;;5127620;28;20243;-79
2022/10/02 16:35:38;;;;;;;9.37;1.30;;;12.90;99.90;;;;;;5128382;28;20195;-80
2022/10/02 16:38:27;;;;;;;2.97;0.90;;;12.70;99.90;;;;;;5128774;28;20266;-85
2022/10/02 16:41:23;;;;;;;2.57;1.27;;;12.60;99.90;;;;;;5116553;28;20190;-84
2022/10/02 16:43:58;;;;;;;4.23;2.47;;;12.60;99.90;;;;;;5114768;28;20221;-83
2022/10/02 16:46:43;;;;;;;7.47;2.20;;;12.50;99.90;;;;;;5114472;28;20198;-83
2022/10/02 16:49:31;;;;;;;5.60;2.90;;;12.50;99.90;;;;;;5119131;28;20520;-86
2022/10/02 16:52:15;;;;;;;3.33;1.20;;;12.50;99.90;;;;;;5115439;28;20660;-87
2022/10/02 16:54:59;;;;;;;4.67;2.90;;;12.40;99.90;;;;;;5114423;28;20197;-85
2022/10/02 16:57:38;;;;;;;3.20;2.60;;;12.30;99.90;;;;;;5115248;28;20170;-87
2022/10/02 17:00:29;;;;;;;2.33;1.80;;;12.30;99.90;;;;;;5115355;28;20174;-86
2022/10/02 17:03:16;;;;;;;1.40;1.30;;;12.20;99.90;;;;;;5116283;28;20622;-86
2022/10/02 17:05:55;;;;;;;3.97;1.80;;;12.20;99.90;;;;;;5116965;28;20611;-86
2022/10/02 17:08:37;;;;;;;1.77;1.10;;;12.20;99.90;;;;;;5119470;28;20160;-85
2022/10/02 17:11:14;;;;;;;2.40;1.50;;;12.20;99.90;;;;;;5119762;28;20163;-85
2022/10/02 17:14:22;;;;;;;5.63;1.63;;;12.20;99.90;;;;;;5118866;28;20572;-85
2022/10/02 17:17:07;;;;;;;2.70;1.20;;;12.30;99.90;;;;;;5094850;28;20182;-86
2022/10/02 17:20:12;;;;;;;2.00;1.27;;;12.30;99.90;;;;;;5097655;28;20191;-84
2022/10/02 17:22:56;;;;;;;1.40;0.93;;;12.30;99.90;;;;;;5119204;28;20535;-86
2022/10/02 17:25:21;;;;;;;4.13;1.50;;;12.30;99.90;;;;;;5120746;27;20255;-86
2022/10/02 17:28:01;;;;;;;2.37;1.80;;;12.30;99.90;;;;;;5133434;27;20182;-84
2022/10/02 17:30:42;;;;;;;6.20;3.60;;;12.40;99.90;;;;;;5118535;28;20172;-85
2022/10/02 17:33:15;;;;;;;4.00;2.97;;;12.40;99.90;;;;;;5118780;28;20175;-85
2022/10/02 17:35:55;;;;;;;2.60;2.00;;;12.40;99.90;;;;;;5118423;28;20195;-85
2022/10/02 17:38:24;;;;;;;2.30;2.07;;;12.40;99.90;;;;;;5119524;28;20213;-84
2022/10/02 17:41:08;;;;;;;4.23;3.17;;;12.40;99.90;;;;;;5117970;28;20582;-84
2022/10/02 17:43:49;;;;;;;3.43;2.77;;;12.30;99.90;;;;;;5116908;28;20207;-82
2022/10/02 17:46:18;;;;;;;3.77;2.67;;;12.30;99.90;;;;;;5117282;28;20244;-83
2022/10/02 17:48:46;;;;;;;1.50;1.30;;;12.20;99.90;;;;;;5121161;28;20325;-86
2022/10/02 17:51:33;;;;;;;1.40;1.30;;;12.20;99.90;;;;;;5119688;28;20241;-87
2022/10/02 17:57:25;;;;;;;4.73;3.60;;;12.30;99.90;;;;;;5121616;28;20623;-86
2022/10/02 18:00:01;;;;;;;2.77;2.27;;;12.30;99.90;;;;;;5121086;28;20160;-85
2022/10/02 18:02:50;;;;;;;4.17;3.47;;;12.20;99.90;;;;;;5120091;28;20175;-86
2022/10/02 18:05:25;;;;;;;3.90;2.73;;;12.10;99.90;;;;;;5120654;28;20218;-86
2022/10/02 18:08:00;;;;;;;2.30;1.80;;;12.10;99.90;;;;;;5121601;28;20177;-86
2022/10/02 18:11:04;;;;;;;1.00;0.90;;;12.10;99.90;;;;;;5119793;28;20174;-85
2022/10/02 18:13:43;;;;;;;2.57;1.60;;;12.10;99.90;;;;;;5078253;28;20173;-86
2022/10/02 18:16:47;;;;;;;2.37;1.50;;;12.20;99.90;;;;;;5078281;28;20212;-85
2022/10/02 18:19:22;;;;;;;2.90;2.33;;;12.10;99.90;;;;;;5126983;27;20186;-85
2022/10/02 18:22:07;;;;;;;7.57;3.83;;;12.10;99.90;;;;;;5137345;27;20182;-86
2022/10/02 18:24:51;;;;;;;1.73;1.63;;;12.10;99.90;;;;;;5118037;27;20236;-85
2022/10/02 18:27:51;;;;;;;2.70;2.07;;;12.20;99.90;;;;;;5120346;28;20173;-85
2022/10/02 18:30:24;;;;;;;10.37;5.17;;;12.20;99.90;;;;;;5119438;28;20175;-86
2022/10/02 18:33:00;;;;;;;4.70;3.40;;;12.20;99.90;;;;;;5119118;28;20167;-85
2022/10/02 18:35:49;;;;;;;2.93;2.50;;;12.30;99.90;;;;;;5119517;28;20202;-85
2022/10/02 18:38:27;;;;;;;2.30;1.90;;;12.30;99.90;;;;;;5100641;28;20706;-86
2022/10/02 18:41:21;;;;;;;1.87;1.43;;;12.30;99.90;;;;;;5120427;28;20160;-86
2022/10/02 18:43:56;;;;;;;2.20;2.00;;;12.30;99.90;;;;;;5119198;28;20203;-85
2022/10/02 18:46:34;;;;;;;3.27;2.97;;;12.30;99.90;;;;;;5119605;28;20195;-87
2022/10/02 18:49:22;;;;;;;6.83;2.50;;;12.20;99.90;;;;;;5118845;28;20531;-85
2022/10/02 18:52:05;;;;;;;4.83;3.67;;;12.20;99.90;;;;;;5120020;28;20151;-86
2022/10/02 18:54:40;;;;;;;6.67;5.97;;;12.20;99.90;;;;;;5121343;28;20180;-86
2022/10/02 18:57:12;;;;;;;6.07;4.87;;;12.20;99.90;;;;;;5120147;28;20245;-86
2022/10/02 18:59:51;;;;;;;6.60;5.47;;;12.20;99.90;;;;;;5119705;28;20252;-86
2022/10/02 19:02:42;;;;;;;6.40;3.40;;;12.20;99.90;;;;;;5117932;28;20167;-85
2022/10/02 19:05:21;;;;;;;2.80;2.33;;;12.10;99.90;;;;;;5118651;28;20214;-86
2022/10/02 19:07:50;;;;;;;2.60;2.30;;;12.10;99.90;;;;;;5118075;28;20204;-86
2022/10/02 19:10:31;;;;;;;2.60;2.40;;;12.10;99.90;;;;;;5120240;28;20693;-85
2022/10/02 19:13:00;;;;;;;3.40;3.10;;;12.10;99.90;;;;;;5120480;28;20216;-85
2022/10/02 19:15:31;;;;;;;7.83;5.07;;;12.10;99.90;;;;;;5117060;28;20621;-85
2022/10/02 19:18:02;;;;;;;4.93;4.40;;;12.10;99.90;;;;;;5117164;28;20275;-85
2022/10/02 19:20:52;;;;;;;3.50;3.20;;;12.10;99.90;;;;;;5120246;28;20202;-86
2022/10/02 19:23:45;;;;;;;2.60;2.40;;;12.10;99.90;;;;;;5119041;28;20168;-86
2022/10/02 19:26:24;;;;;;;3.50;3.20;;;12.00;99.90;;;;;;5127663;28;20259;-86
2022/10/02 19:28:57;;;;;;;9.67;2.43;;;12.00;99.90;;;;;;5127235;28;20163;-85
2022/10/02 19:31:33;;;;;;;1.90;1.53;;;11.90;99.90;;;;;;5120897;28;20173;-85
2022/10/02 19:34:04;;;;;;;1.30;1.20;;;11.90;99.90;;;;;;5130805;27;20194;-85
2022/10/02 19:36:52;;;;;;;1.00;0.90;;;11.80;99.90;;;;;;5143053;27;20230;-86
2022/10/02 19:39:25;;;;;;;1.67;1.20;;;11.70;99.90;;;;;;5137102;27;20587;-87
2022/10/02 19:41:54;;;;;;;4.77;1.00;;;11.70;99.90;;;;;;5139362;27;20164;-85
2022/10/02 19:44:27;;;;;;;1.00;0.80;;;11.60;99.90;;;;;;5135770;27;20211;-84
2022/10/02 19:46:56;;;;;;;1.30;0.90;;;11.60;99.90;;;;;;5138053;27;20187;-86
2022/10/02 19:49:35;;;;;;;1.53;1.30;;;11.50;99.90;;;;;;5137642;27;20262;-84
2022/10/02 19:52:01;;;;;;;1.53;0.93;;;11.50;99.90;;;;;;5130469;27;20220;-85
2022/10/02 19:54:37;;;;;;;1.20;1.10;;;11.50;99.90;;;;;;5116074;28;20637;-85
2022/10/02 19:57:24;;;;;;;1.10;0.87;;;11.50;99.90;;;;;;5117280;28;20164;-86
2022/10/02 19:59:51;;;;;;;0.87;0.87;;;11.40;99.90;;;;;;5115849;28;20177;-85
2022/10/02 20:02:20;;;;;;;1.77;1.60;;;11.40;99.90;;;;;;5117069;28;20228;-86
2022/10/02 20:04:47;;;;;;;2.17;1.73;;;11.30;99.90;;;;;;5115834;28;20733;-85
2022/10/02 20:07:17;;;;;;;2.63;2.00;;;11.30;99.90;;;;;;5117121;28;20182;-86
2022/10/02 20:09:51;;;;;;;2.53;1.80;;;11.30;99.90;;;;;;5116885;28;20200;-86
2022/10/02 20:12:22;;;;;;;2.57;1.80;;;11.30;99.90;;;;;;5115796;28;20170;-85
2022/10/02 20:15:04;;;;;;;1.77;1.50;;;11.40;99.90;;;;;;5116394;28;20204;-85
2022/10/02 20:17:31;;;;;;;1.93;1.67;;;11.30;99.90;;;;;;5115556;28;20583;-84
2022/10/02 20:20:12;;;;;;;2.97;2.17;;;11.30;99.90;;;;;;5115786;28;20186;-83
2022/10/02 20:23:00;;;;;;;4.53;3.30;;;11.30;99.90;;;;;;5115977;28;20180;-83
2022/10/02 20:25:30;;;;;;;3.33;2.50;;;11.30;99.90;;;;;;5116706;28;20234;-85
2022/10/02 20:28:31;;;;;;;3.50;2.47;;;11.30;99.90;;;;;;5116069;28;20228;-85
2022/10/02 20:31:04;;;;;;;4.67;3.30;;;11.30;99.90;;;;;;5115179;28;20274;-84
2022/10/02 20:33:40;;;;;;;4.53;3.40;;;11.30;99.90;;;;;;5116958;28;20198;-82
2022/10/02 20:36:27;;;;;;;3.97;2.83;;;11.30;99.90;;;;;;5115946;28;20195;-82
2022/10/02 20:39:02;;;;;;;3.70;2.60;;;11.40;99.90;;;;;;5113798;28;20629;-82
2022/10/02 20:41:38;;;;;;;6.87;3.00;;;11.30;99.90;;;;;;5117082;28;20171;-84
2022/10/02 20:44:05;;;;;;;6.30;3.63;;;11.30;99.90;;;;;;5115410;28;20741;-86
2022/10/02 20:46:51;;;;;;;3.70;2.83;;;11.30;99.90;;;;;;5116000;28;20195;-86
2022/10/02 20:49:20;;;;;;;3.70;2.00;;;11.30;99.90;;;;;;5115656;28;20175;-84
2022/10/02 20:52:18;;;;;;;2.27;1.50;;;11.30;99.90;;;;;;5117010;28;20210;-85
2022/10/02 20:55:05;;;;;;;2.47;1.67;;;11.30;99.90;;;;;;5085611;28;20207;-86
2022/10/02 20:58:05;;;;;;;2.27;1.47;;;11.30;99.90;;;;;;5117129;28;20176;-85
2022/10/02 21:01:00;;;;;;;4.37;1.40;;;11.40;99.90;;;;;;5073540;28;20659;-88
2022/10/02 21:03:55;;;;;;;2.17;1.13;;;11.30;99.90;;;;;;5114956;28;20572;-88
2022/10/02 21:06:50;;;;;;;1.33;1.20;;;11.30;99.90;;;;;;5075404;28;20252;-86
2022/10/02 21:09:55;;;;;;;2.00;1.40;;;11.30;99.90;;;;;;5117125;28;20168;-86
2022/10/02 21:12:52;;;;;;;2.00;1.30;;;11.30;99.90;;;;;;5117107;28;20319;-88
2022/10/02 21:15:38;;;;;;;1.43;1.33;;;11.30;99.90;;;;;;5117467;28;20230;-87
2022/10/02 21:18:28;;;;;;;1.40;1.10;;;11.30;99.90;;;;;;5116659;28;20191;-88
2022/10/02 21:21:09;;;;;;;1.83;1.50;;;11.30;99.90;;;;;;5115565;28;20181;-88
2022/10/02 21:23:53;;;;;;;1.10;1.00;;;11.30;99.90;;;;;;5115099;28;20218;-87
2022/10/02 21:26:26;;;;;;;1.30;1.20;;;11.30;99.90;;;;;;5116161;28;20259;-87
2022/10/02 21:29:14;;;;;;;1.23;1.13;;;11.30;99.90;;;;;;5116026;28;20195;-89
2022/10/02 21:32:38;;;;;;;1.20;1.10;;;11.40;99.90;;;;;;5116185;28;20182;-88
2022/10/02 21:35:17;;;;;;;1.10;1.00;;;11.30;99.90;;;;;;5094473;28;20565;-89
2022/10/02 21:38:26;;;;;;;9.70;8.70;;;11.30;99.90;;;;;;5117070;28;20171;-89
2022/10/02 21:41:29;;;;;;;3.90;2.80;;;11.40;99.90;;;;;;5111826;28;20195;-88
2022/10/02 21:44:29;;;;;;;5.90;5.30;;;11.40;99.90;;;;;;5136927;28;20207;-87
2022/10/02 21:47:17;;;;;;;7.77;6.97;;;11.30;99.90;;;;;;5098384;28;20179;-87
2022/10/02 21:50:09;;;;;;;4.43;3.80;;;11.30;99.90;;;;;;5115782;28;20148;-87
2022/10/02 21:53:10;;;;;;;4.30;3.00;;;11.30;99.90;;;;;;5117353;28;20207;-87
2022/10/02 21:56:09;;;;;;;2.23;2.03;;;11.30;99.90;;;;;;5118373;28;20295;-88
2022/10/02 21:58:58;;;;;;;3.00;2.20;;;11.30;99.90;;;;;;5119824;28;20151;-87
2022/10/02 22:01:33;;;;;;;5.90;3.60;;;11.30;99.90;;;;;;5118245;28;20175;-88
2022/10/02 22:04:30;;;;;;;2.47;2.27;;;11.30;99.90;;;;;;5117711;28;20210;-87
2022/10/02 22:07:09;;;;;;;2.93;2.60;;;11.30;99.90;;;;;;5117653;28;20576;-85
2022/10/02 22:10:03;;;;;;;3.97;2.97;;;11.30;99.90;;;;;;5118631;28;20178;-87
2022/10/02 22:13:06;;;;;;;2.70;2.50;;;11.30;99.90;;;;;;5117579;28;20175;-88
2022/10/02 22:16:02;;;;;;;4.10;2.10;;;11.30;99.90;;;;;;5117607;28;20191;-87
2022/10/02 22:18:46;;;;;;;2.00;1.80;;;11.30;99.90;;;;;;5117717;28;20221;-85
2022/10/02 22:21:32;;;;;;;1.93;1.60;;;11.30;99.90;;;;;;5119341;28;20168;-85
2022/10/02 22:24:20;;;;;;;1.57;1.40;;;11.30;99.90;;;;;;5123603;28;20186;-85
2022/10/02 22:26:58;;;;;;;2.17;1.60;;;11.30;99.90;;;;;;5124961;28;20156;-85
